Time;durP1;ratioP1;P1;durP2;ratioP2;P2;SDS_P1;SDS_P2;PMS_P1;PMS_P2;Temp;Humidity;BMP_temperature;BMP_pressure;BME280_temperature;BME280_humidity;BME280_pressure;Samples;Min_cycle;Max_cycle;Signal;HPM_P1;HPM_P2
2021/12/21 00:00:12;;;;;;;1611.50;645.95;;;;;;;;;;4931855;28;20023;-88
2021/12/21 00:02:42;;;;;;;1604.75;669.30;;;;;;;;;;4923637;29;20031;-88
2021/12/21 00:05:15;;;;;;;1268.40;511.13;;;;;;;;;;4914432;28;20020;-88
2021/12/21 00:07:42;;;;;;;1204.90;558.45;;;;;;;;;;4967278;28;20074;-88
2021/12/21 00:10:10;;;;;;;1974.18;754.53;;;;;;;;;;4966832;28;20023;-88
2021/12/21 00:12:39;;;;;;;1084.28;574.50;;;;;;;;;;4957680;28;20513;-88
2021/12/21 00:15:18;;;;;;;1538.53;609.92;;;;;;;;;;4977905;28;20036;-88
2021/12/21 00:17:53;;;;;;;1999.90;857.00;;;;;;;;;;4958778;28;20039;-88
2021/12/21 00:23:18;;;;;;;1356.07;602.97;;;;;;;;;;4972546;28;20031;-88
2021/12/21 00:25:39;;;;;;;1351.18;688.95;;;;;;;;;;4960370;28;20062;-88
2021/12/21 00:28:07;;;;;;;1022.95;572.30;;;;;;;;;;4951498;28;20027;-89
2021/12/21 00:30:33;;;;;;;1999.90;630.47;;;;;;;;;;4981489;28;20077;-87
2021/12/21 00:33:02;;;;;;;1999.90;762.75;;;;;;;;;;4963016;28;20039;-88
2021/12/21 00:35:29;;;;;;;937.60;534.40;;;;;;;;;;4959108;28;20023;-88
2021/12/21 00:37:56;;;;;;;1499.82;582.35;;;;;;;;;;4956550;28;20055;-88
2021/12/21 00:40:23;;;;;;;1988.63;662.35;;;;;;;;;;4968822;28;20118;-87
2021/12/21 00:42:50;;;;;;;1351.78;521.17;;;;;;;;;;4966723;28;20030;-87
2021/12/21 00:45:18;;;;;;;1813.38;658.35;;;;;;;;;;4947048;28;20034;-87
2021/12/21 00:47:48;;;;;;;1892.10;683.85;;;;;;;;;;4924223;28;20127;-87
2021/12/21 00:50:17;;;;;;;1877.97;716.40;;;;;;;;;;4941189;28;20366;-87
2021/12/21 00:52:51;;;;;;;956.35;574.58;;;;;;;;;;4956036;29;20031;-87
2021/12/21 00:55:21;;;;;;;1995.80;718.03;;;;;;;;;;4960080;28;20513;-86
2021/12/21 00:57:48;;;;;;;1912.03;740.40;;;;;;;;;;4948211;28;20043;-87
2021/12/21 01:00:15;;;;;;;1999.90;741.90;;;;;;;;;;4956002;29;20035;-87
2021/12/21 01:02:43;;;;;;;1632.05;664.55;;;;;;;;;;4957794;28;20030;-87
2021/12/21 01:05:21;;;;;;;1999.90;715.17;;;;;;;;;;4959310;28;20031;-87
2021/12/21 01:07:51;;;;;;;1999.90;803.83;;;;;;;;;;4957325;28;20045;-87
2021/12/21 01:10:50;;;;;;;1674.93;694.80;;;;;;;;;;4940046;28;20027;-87
2021/12/21 01:13:29;;;;;;;1580.32;663.03;;;;;;;;;;4938419;28;20138;-87
2021/12/21 01:18:32;;;;;;;1614.32;728.70;;;;;;;;;;4974889;28;20031;-87
2021/12/21 01:21:10;;;;;;;1300.68;618.42;;;;;;;;;;4970981;28;20031;-87
2021/12/21 01:29:20;;;;;;;1371.18;538.40;;;;;;;;;;4947923;28;20524;-87
2021/12/21 01:34:26;;;;;;;1358.43;644.17;;;;;;;;;;4958653;28;20034;-86
2021/12/21 01:37:05;;;;;;;1976.68;719.33;;;;;;;;;;4958465;28;20034;-87
2021/12/21 01:42:09;;;;;;;1999.90;699.97;;;;;;;;;;4952845;29;20027;-87
2021/12/21 01:50:02;;;;;;;1815.82;778.83;;;;;;;;;;4955555;29;20175;-87
2021/12/21 01:52:30;;;;;;;1864.85;783.15;;;;;;;;;;4938978;29;20019;-87
2021/12/21 01:54:56;;;;;;;1788.80;682.58;;;;;;;;;;4955141;28;20031;-87
2021/12/21 01:57:22;;;;;;;1999.90;805.78;;;;;;;;;;4955066;28;20054;-87
2021/12/21 01:59:47;;;;;;;1430.57;693.58;;;;;;;;;;4938906;28;20032;-87
2021/12/21 02:02:18;;;;;;;1999.90;814.08;;;;;;;;;;4953525;28;20058;-87
2021/12/21 02:04:43;;;;;;;1558.43;713.10;;;;;;;;;;4957914;28;20023;-87
2021/12/21 02:07:10;;;;;;;1965.75;501.38;;;;;;;;;;4939320;28;20106;-87
2021/12/21 02:09:39;;;;;;;1999.90;642.75;;;;;;;;;;4954840;29;20047;-87
2021/12/21 02:12:09;;;;;;;1999.90;764.28;;;;;;;;;;4938747;29;20062;-87
2021/12/21 02:14:35;;;;;;;1137.22;604.13;;;;;;;;;;4959869;28;20039;-87
2021/12/21 02:20:10;;;;;;;1914.82;684.92;;;;;;;;;;4988279;28;20417;-87
2021/12/21 02:22:44;;;;;;;1490.97;661.60;;;;;;;;;;4957702;28;20034;-87
2021/12/21 02:26:03;;;;;;;1797.63;715.47;;;;;;;;;;4971882;28;20049;-87
2021/12/21 02:28:32;;;;;;;1999.90;833.67;;;;;;;;;;4974407;28;20046;-87
2021/12/21 02:30:59;;;;;;;1999.90;910.33;;;;;;;;;;4961086;28;20485;-86
2021/12/21 02:33:26;;;;;;;1999.90;587.42;;;;;;;;;;4941277;28;20030;-87
2021/12/21 02:35:53;;;;;;;1999.90;723.38;;;;;;;;;;4973524;28;20042;-85
2021/12/21 02:38:19;;;;;;;1999.90;760.85;;;;;;;;;;4989752;28;20027;-86
2021/12/21 02:40:45;;;;;;;1999.90;613.65;;;;;;;;;;4953476;28;20046;-87
2021/12/21 02:43:13;;;;;;;1999.90;647.40;;;;;;;;;;4941776;29;20038;-87
2021/12/21 02:45:40;;;;;;;1999.90;850.45;;;;;;;;;;4929672;29;20041;-87
2021/12/21 02:48:09;;;;;;;1999.90;710.85;;;;;;;;;;4927366;29;20046;-87
2021/12/21 02:50:38;;;;;;;1999.90;715.28;;;;;;;;;;4954398;28;20115;-86
2021/12/21 02:53:05;;;;;;;1999.90;762.65;;;;;;;;;;4973329;28;20498;-86
2021/12/21 02:55:32;;;;;;;1999.90;839.00;;;;;;;;;;4956854;28;20049;-87
2021/12/21 02:57:58;;;;;;;1999.90;779.88;;;;;;;;;;4956885;28;20031;-86
2021/12/21 03:00:25;;;;;;;1999.90;754.97;;;;;;;;;;4940670;28;20102;-86
2021/12/21 03:02:52;;;;;;;1997.18;778.67;;;;;;;;;;4956458;28;20034;-87
2021/12/21 03:05:20;;;;;;;1798.50;774.85;;;;;;;;;;4972890;28;20439;-87
2021/12/21 03:10:28;;;;;;;1888.90;714.00;;;;;;;;;;4944624;28;20042;-87
2021/12/21 03:15:39;;;;;;;1999.90;710.25;;;;;;;;;;4960180;28;20034;-86
2021/12/21 03:18:07;;;;;;;1867.13;678.35;;;;;;;;;;4972447;28;20390;-87
2021/12/21 03:20:34;;;;;;;1767.05;688.78;;;;;;;;;;4988862;28;20050;-86
2021/12/21 03:23:01;;;;;;;1976.82;839.65;;;;;;;;;;4953177;28;20036;-86
2021/12/21 03:25:28;;;;;;;1833.85;607.53;;;;;;;;;;4954815;28;20485;-86
2021/12/21 03:27:54;;;;;;;1980.50;812.67;;;;;;;;;;4921179;29;20031;-87
2021/12/21 03:30:23;;;;;;;1898.18;659.17;;;;;;;;;;4953260;29;20118;-86
2021/12/21 03:32:48;;;;;;;1825.97;687.83;;;;;;;;;;4952757;29;20036;-86
2021/12/21 03:35:14;;;;;;;1878.55;678.45;;;;;;;;;;4933764;29;20041;-86
2021/12/21 03:37:39;;;;;;;1625.43;695.42;;;;;;;;;;4953009;28;20023;-85
2021/12/21 03:40:05;;;;;;;1999.90;759.47;;;;;;;;;;4936509;28;20143;-86
2021/12/21 03:42:32;;;;;;;1842.85;813.45;;;;;;;;;;4956695;28;20177;-86
2021/12/21 03:44:58;;;;;;;1586.55;670.42;;;;;;;;;;4949383;28;20028;-86
2021/12/21 03:47:25;;;;;;;1776.15;722.47;;;;;;;;;;4953037;29;20386;-85
2021/12/21 03:50:00;;;;;;;1999.90;923.20;;;;;;;;;;4952824;29;20035;-86
2021/12/21 03:52:27;;;;;;;1944.75;806.85;;;;;;;;;;4955487;28;20053;-86
2021/12/21 03:54:56;;;;;;;1688.60;793.78;;;;;;;;;;4955840;28;20046;-86
2021/12/21 03:57:22;;;;;;;1999.90;727.63;;;;;;;;;;4955789;28;20031;-86
2021/12/21 03:59:49;;;;;;;1999.90;796.55;;;;;;;;;;4955924;28;20038;-86
2021/12/21 04:02:14;;;;;;;1999.90;764.22;;;;;;;;;;4971416;28;20208;-85
2021/12/21 04:04:42;;;;;;;1944.50;767.00;;;;;;;;;;4939636;28;20129;-86
2021/12/21 04:07:10;;;;;;;1999.90;840.40;;;;;;;;;;4988003;28;20038;-86
2021/12/21 04:09:35;;;;;;;1991.22;781.08;;;;;;;;;;4952308;28;20155;-86
2021/12/21 04:12:01;;;;;;;1999.90;781.45;;;;;;;;;;4936382;29;20038;-86
2021/12/21 04:14:31;;;;;;;1979.65;766.72;;;;;;;;;;4952414;29;20070;-86
2021/12/21 04:17:00;;;;;;;1999.90;952.05;;;;;;;;;;4936610;28;20091;-85
2021/12/21 04:19:26;;;;;;;1999.90;926.13;;;;;;;;;;4952541;28;20031;-85
2021/12/21 04:21:52;;;;;;;1967.75;853.60;;;;;;;;;;4952373;28;20082;-85
2021/12/21 04:24:18;;;;;;;1999.90;885.75;;;;;;;;;;4965906;28;20042;-86
2021/12/21 04:26:44;;;;;;;1439.95;748.60;;;;;;;;;;4948610;28;20170;-85
2021/12/21 04:29:10;;;;;;;1999.90;854.22;;;;;;;;;;4984612;28;20039;-86
2021/12/21 04:31:35;;;;;;;1999.90;764.10;;;;;;;;;;4952203;29;20040;-86
2021/12/21 04:34:02;;;;;;;1999.90;732.53;;;;;;;;;;4946862;28;20049;-85
2021/12/21 04:36:28;;;;;;;1999.90;802.13;;;;;;;;;;4939688;28;20028;-85
2021/12/21 04:38:55;;;;;;;1999.90;930.70;;;;;;;;;;4955669;28;20501;-86
2021/12/21 04:41:23;;;;;;;1999.90;838.47;;;;;;;;;;4951721;28;20083;-85
2021/12/21 04:43:53;;;;;;;1999.90;814.75;;;;;;;;;;4959845;28;20046;-85
2021/12/21 04:46:19;;;;;;;1569.47;730.67;;;;;;;;;;4961753;28;20038;-85
2021/12/21 04:48:44;;;;;;;1999.90;873.28;;;;;;;;;;4956811;28;20121;-86
2021/12/21 04:51:10;;;;;;;1999.90;813.88;;;;;;;;;;4943261;29;20067;-86
2021/12/21 04:53:35;;;;;;;1999.90;861.67;;;;;;;;;;4939625;28;20406;-85
2021/12/21 04:56:02;;;;;;;1999.90;747.10;;;;;;;;;;4939216;29;20092;-85
2021/12/21 04:58:28;;;;;;;1904.97;835.22;;;;;;;;;;4975183;28;20050;-85
2021/12/21 05:00:55;;;;;;;1999.90;793.78;;;;;;;;;;4955348;28;20019;-85
2021/12/21 05:03:21;;;;;;;1999.90;786.67;;;;;;;;;;4928791;29;20050;-85
2021/12/21 05:05:47;;;;;;;1906.65;720.80;;;;;;;;;;4955422;29;20050;-85
2021/12/21 05:08:21;;;;;;;1955.55;772.50;;;;;;;;;;4939444;28;20031;-85
2021/12/21 05:10:49;;;;;;;1999.90;896.80;;;;;;;;;;4939003;29;20521;-85
2021/12/21 05:13:17;;;;;;;1661.53;771.38;;;;;;;;;;4955494;29;20508;-85
2021/12/21 05:15:44;;;;;;;1999.90;937.80;;;;;;;;;;4971040;28;20129;-85
2021/12/21 05:18:10;;;;;;;1999.90;950.30;;;;;;;;;;4963031;28;20047;-85
2021/12/21 05:20:36;;;;;;;1999.90;728.05;;;;;;;;;;4939336;28;20042;-85
2021/12/21 05:23:03;;;;;;;1999.90;807.42;;;;;;;;;;4974390;28;20031;-85
2021/12/21 05:25:29;;;;;;;1845.10;773.03;;;;;;;;;;4989215;28;20043;-85
2021/12/21 05:27:56;;;;;;;1999.90;801.00;;;;;;;;;;4968509;28;20039;-85
2021/12/21 05:30:26;;;;;;;1999.65;711.28;;;;;;;;;;4958377;28;20035;-85
2021/12/21 05:32:52;;;;;;;1999.90;904.90;;;;;;;;;;4972911;28;20037;-85
2021/12/21 05:35:17;;;;;;;1999.90;838.25;;;;;;;;;;4973748;28;20515;-85
2021/12/21 05:37:43;;;;;;;1999.90;876.05;;;;;;;;;;4954420;28;20106;-85
2021/12/21 05:40:15;;;;;;;1999.90;773.25;;;;;;;;;;4954348;28;20039;-83
2021/12/21 05:42:41;;;;;;;1999.90;850.00;;;;;;;;;;4950140;28;20106;-83
2021/12/21 05:45:07;;;;;;;1999.90;727.17;;;;;;;;;;4986489;28;20047;-83
2021/12/21 05:47:32;;;;;;;1885.20;580.50;;;;;;;;;;4966751;28;20137;-83
2021/12/21 05:49:58;;;;;;;1804.68;624.58;;;;;;;;;;4956099;28;20041;-83
2021/12/21 05:52:23;;;;;;;1999.90;868.28;;;;;;;;;;4971508;28;20112;-84
2021/12/21 05:54:49;;;;;;;1999.90;790.88;;;;;;;;;;4944988;29;20098;-82
2021/12/21 05:57:15;;;;;;;1966.85;655.80;;;;;;;;;;4954134;28;20039;-84
2021/12/21 05:59:42;;;;;;;1999.90;707.92;;;;;;;;;;4959953;28;20031;-83
2021/12/21 06:02:08;;;;;;;1999.90;860.85;;;;;;;;;;4966147;28;20170;-84
2021/12/21 06:04:34;;;;;;;1800.03;796.40;;;;;;;;;;4954539;28;20038;-85
2021/12/21 06:06:59;;;;;;;1999.90;908.33;;;;;;;;;;4937913;29;20039;-85
2021/12/21 06:09:27;;;;;;;1980.47;790.80;;;;;;;;;;4938279;29;20034;-84
2021/12/21 06:25:34;;;;;;;1995.05;847.95;;;;;;;;;;4955267;28;20118;-84
2021/12/21 06:28:01;;;;;;;1786.28;778.95;;;;;;;;;;4957247;28;20023;-87
2021/12/21 06:30:27;;;;;;;1999.90;890.17;;;;;;;;;;4957207;28;20085;-83
2021/12/21 06:32:52;;;;;;;1931.43;812.65;;;;;;;;;;4937226;28;20039;-85
2021/12/21 06:35:18;;;;;;;1999.90;870.90;;;;;;;;;;4936582;29;20071;-87
2021/12/21 06:37:43;;;;;;;1999.90;864.22;;;;;;;;;;4953979;28;20039;-87
2021/12/21 06:40:10;;;;;;;1999.90;785.67;;;;;;;;;;4954497;28;20032;-86
2021/12/21 06:42:36;;;;;;;1999.90;830.53;;;;;;;;;;4953732;29;20125;-85
2021/12/21 06:45:11;;;;;;;1999.90;879.63;;;;;;;;;;4927609;28;20512;-85
2021/12/21 06:53:09;;;;;;;1999.90;696.00;;;;;;;;;;4957504;28;20035;-91
2021/12/21 06:55:35;;;;;;;1999.90;880.08;;;;;;;;;;4953752;28;20039;-88
2021/12/21 06:58:01;;;;;;;1999.90;821.10;;;;;;;;;;4953450;29;20081;-88
2021/12/21 07:00:27;;;;;;;1999.90;785.67;;;;;;;;;;4953588;29;20039;-87
2021/12/21 07:02:54;;;;;;;1999.90;918.15;;;;;;;;;;4922082;29;20450;-89
2021/12/21 07:05:19;;;;;;;1999.90;804.90;;;;;;;;;;4922202;29;20058;-86
2021/12/21 07:07:45;;;;;;;1888.10;799.47;;;;;;;;;;4938233;28;20501;-86
2021/12/21 07:10:20;;;;;;;1985.55;673.17;;;;;;;;;;4972120;28;20026;-85
2021/12/21 07:20:22;;;;;;;1999.90;934.40;;;;;;;;;;4971846;28;20572;-84
2021/12/21 07:22:47;;;;;;;1999.90;861.10;;;;;;;;;;4955450;28;20126;-85
2021/12/21 07:25:16;;;;;;;1999.90;825.22;;;;;;;;;;4955931;28;20107;-85
2021/12/21 07:27:41;;;;;;;1999.90;830.00;;;;;;;;;;4963674;28;20030;-85
2021/12/21 07:30:07;;;;;;;1914.28;599.65;;;;;;;;;;4952649;28;20042;-85
2021/12/21 07:32:33;;;;;;;1877.05;568.58;;;;;;;;;;4920577;29;20049;-85
2021/12/21 07:34:59;;;;;;;1999.90;590.22;;;;;;;;;;4968485;28;20035;-85
2021/12/21 07:37:26;;;;;;;1999.90;635.70;;;;;;;;;;4956075;28;20038;-84
2021/12/21 07:39:52;;;;;;;1999.90;721.45;;;;;;;;;;4955893;28;20046;-85
2021/12/21 07:42:18;;;;;;;1999.90;619.92;;;;;;;;;;4955300;28;20027;-84
2021/12/21 07:44:45;;;;;;;1999.90;632.22;;;;;;;;;;4955605;28;20085;-85
2021/12/21 07:47:11;;;;;;;1999.90;486.05;;;;;;;;;;4983265;28;20113;-84
2021/12/21 07:49:37;;;;;;;1999.90;668.08;;;;;;;;;;4974943;28;20515;-85
2021/12/21 07:52:02;;;;;;;1999.90;551.90;;;;;;;;;;4955700;28;20042;-85
2021/12/21 07:54:28;;;;;;;1861.68;568.42;;;;;;;;;;4936597;29;20377;-85
2021/12/21 07:56:54;;;;;;;1999.90;657.63;;;;;;;;;;4965564;28;20031;-85
2021/12/21 07:59:20;;;;;;;1999.90;649.88;;;;;;;;;;4952961;28;20050;-85
2021/12/21 08:01:46;;;;;;;1602.53;475.27;;;;;;;;;;4955822;28;20030;-86
2021/12/21 08:04:12;;;;;;;1523.95;516.17;;;;;;;;;;4955657;28;20066;-83
2021/12/21 08:06:38;;;;;;;1644.57;431.30;;;;;;;;;;4972007;28;20086;-85
2021/12/21 08:09:05;;;;;;;1999.90;663.25;;;;;;;;;;4955258;28;20069;-86
2021/12/21 08:14:03;;;;;;;1775.53;522.05;;;;;;;;;;4987723;28;20045;-87
2021/12/21 08:16:30;;;;;;;1594.15;494.23;;;;;;;;;;4971899;28;20030;-88
2021/12/21 08:18:56;;;;;;;1992.22;580.47;;;;;;;;;;4972314;28;20035;-87
2021/12/21 08:21:23;;;;;;;1912.47;621.58;;;;;;;;;;4971967;28;20035;-84
2021/12/21 08:23:52;;;;;;;1999.90;717.80;;;;;;;;;;4973362;28;20034;-87
2021/12/21 08:26:18;;;;;;;883.33;317.15;;;;;;;;;;4960157;28;20043;-88
2021/12/21 08:28:46;;;;;;;1478.13;582.70;;;;;;;;;;4956428;28;20054;-88
2021/12/21 08:31:12;;;;;;;1999.90;743.50;;;;;;;;;;4956087;28;20031;-86
2021/12/21 08:33:39;;;;;;;1601.65;511.75;;;;;;;;;;4936933;28;20027;-86
2021/12/21 08:36:06;;;;;;;1935.57;502.77;;;;;;;;;;4939984;28;20489;-85
2021/12/21 08:38:33;;;;;;;1655.32;521.78;;;;;;;;;;4940021;28;20041;-85
2021/12/21 08:40:59;;;;;;;1863.47;542.33;;;;;;;;;;4939957;29;20039;-83
2021/12/21 08:43:28;;;;;;;1405.43;546.72;;;;;;;;;;4939647;28;20024;-84
2021/12/21 08:45:54;;;;;;;1090.32;476.63;;;;;;;;;;4939872;28;20081;-83
2021/12/21 08:48:20;;;;;;;1999.90;586.42;;;;;;;;;;4942768;28;20038;-82
2021/12/21 08:50:47;;;;;;;1989.22;546.00;;;;;;;;;;4942748;28;20035;-82
2021/12/21 08:53:13;;;;;;;1722.95;434.95;;;;;;;;;;4956391;28;20045;-81
2021/12/21 08:55:40;;;;;;;1740.45;523.45;;;;;;;;;;4958147;28;20039;-82
2021/12/21 08:58:06;;;;;;;879.05;357.73;;;;;;;;;;4950151;28;20047;-82
2021/12/21 09:00:31;;;;;;;1450.43;601.38;;;;;;;;;;4955150;28;20101;-82
2021/12/21 09:02:57;;;;;;;588.42;362.05;;;;;;;;;;4954815;29;20497;-82
2021/12/21 09:05:26;;;;;;;973.05;375.25;;;;;;;;;;4940022;28;20031;-83
2021/12/21 09:07:52;;;;;;;1551.32;485.63;;;;;;;;;;4955957;28;20070;-83
2021/12/21 09:10:18;;;;;;;1836.10;563.28;;;;;;;;;;4954903;28;20490;-83
2021/12/21 09:12:44;;;;;;;1538.55;492.15;;;;;;;;;;4942994;28;20035;-83
2021/12/21 09:15:10;;;;;;;1063.18;459.60;;;;;;;;;;4957258;28;20039;-84
2021/12/21 09:17:36;;;;;;;1159.35;336.08;;;;;;;;;;4990611;28;20027;-84
2021/12/21 09:20:03;;;;;;;1473.22;478.38;;;;;;;;;;4958045;28;20038;-84
2021/12/21 09:22:28;;;;;;;1353.10;485.35;;;;;;;;;;4974358;28;20037;-86
2021/12/21 09:24:56;;;;;;;685.42;355.40;;;;;;;;;;4989769;28;20489;-85
2021/12/21 09:27:21;;;;;;;862.40;379.90;;;;;;;;;;4969206;28;20027;-86
2021/12/21 09:29:48;;;;;;;889.70;447.20;;;;;;;;;;4972372;28;20050;-85
2021/12/21 09:32:15;;;;;;;1414.63;599.20;;;;;;;;;;4946526;29;20031;-85
2021/12/21 09:34:40;;;;;;;1729.00;556.90;;;;;;;;;;4923272;28;20030;-83
2021/12/21 09:37:08;;;;;;;1201.32;417.00;;;;;;;;;;4974211;28;20034;-83
2021/12/21 09:39:33;;;;;;;533.67;320.15;;;;;;;;;;4974160;28;20112;-82
2021/12/21 09:41:59;;;;;;;1590.95;511.58;;;;;;;;;;4992988;28;20489;-84
2021/12/21 09:44:25;;;;;;;1771.72;515.28;;;;;;;;;;4948575;28;20430;-83
2021/12/21 09:46:50;;;;;;;1611.93;396.90;;;;;;;;;;4983110;28;20034;-86
2021/12/21 09:49:16;;;;;;;1999.90;408.83;;;;;;;;;;4969961;28;20394;-83
2021/12/21 09:51:41;;;;;;;1999.90;999.90;;;;;;;;;;4954161;29;20090;-78
2021/12/21 09:54:08;;;;;;;1999.90;999.90;;;;;;;;;;4953876;29;20040;-77
2021/12/21 09:56:34;;;;;;;1999.90;999.90;;;;;;;;;;4970039;28;20046;-78
2021/12/21 09:59:00;;;;;;;1999.90;999.90;;;;;;;;;;4954139;29;20027;-78
2021/12/21 10:01:25;;;;;;;1999.90;999.90;;;;;;;;;;4953933;28;20038;-78
2021/12/21 10:03:51;;;;;;;1999.90;999.90;;;;;;;;;;4956259;28;20496;-78
2021/12/21 10:06:16;;;;;;;1999.90;999.90;;;;;;;;;;4973418;28;20489;-78
2021/12/21 10:08:42;;;;;;;1999.90;999.90;;;;;;;;;;4973464;28;20413;-78
2021/12/21 10:11:08;;;;;;;1999.90;999.90;;;;;;;;;;4956871;28;20104;-79
2021/12/21 10:13:37;;;;;;;1999.90;999.90;;;;;;;;;;4956565;28;20031;-79
2021/12/21 10:16:04;;;;;;;1999.90;999.90;;;;;;;;;;4952851;29;20134;-81
2021/12/21 10:18:31;;;;;;;1999.90;999.90;;;;;;;;;;4937863;29;20031;-86
2021/12/21 10:21:09;;;;;;;1999.90;999.90;;;;;;;;;;4954042;29;20425;-92
2021/12/21 10:23:36;;;;;;;1999.90;999.90;;;;;;;;;;4954070;28;20409;-80
2021/12/21 10:26:10;;;;;;;1999.90;999.90;;;;;;;;;;4958309;28;20041;-79
2021/12/21 10:29:00;;;;;;;1999.90;999.90;;;;;;;;;;4940937;28;20023;-82
2021/12/21 10:31:27;;;;;;;1999.90;999.90;;;;;;;;;;4956156;28;20058;-86
2021/12/21 10:33:54;;;;;;;1999.90;999.90;;;;;;;;;;4925746;28;20027;-86
2021/12/21 10:36:19;;;;;;;1999.90;999.90;;;;;;;;;;4956855;28;20082;-84
2021/12/21 10:38:50;;;;;;;1999.90;999.90;;;;;;;;;;4973804;28;20033;-88
2021/12/21 10:41:40;;;;;;;1999.90;999.90;;;;;;;;;;4969059;28;20042;-87
2021/12/21 10:44:06;;;;;;;1999.90;999.90;;;;;;;;;;4973361;28;20035;-89
2021/12/21 10:46:36;;;;;;;1999.90;999.90;;;;;;;;;;4953163;28;20452;-89
2021/12/21 10:49:08;;;;;;;1999.90;999.90;;;;;;;;;;4938008;28;20066;-89
2021/12/21 10:51:37;;;;;;;1999.90;999.90;;;;;;;;;;4938038;29;20106;-89
2021/12/21 10:54:03;;;;;;;1999.90;999.90;;;;;;;;;;4938011;29;20149;-88
2021/12/21 10:56:29;;;;;;;1999.90;999.90;;;;;;;;;;4921984;29;20039;-88
2021/12/21 10:58:55;;;;;;;1999.90;999.90;;;;;;;;;;4944782;28;20547;-89
2021/12/21 11:01:27;;;;;;;1999.90;999.90;;;;;;;;;;4940740;28;20089;-88
2021/12/21 11:03:55;;;;;;;1999.90;999.90;;;;;;;;;;4940373;28;20030;-86
2021/12/21 11:06:32;;;;;;;1999.90;999.90;;;;;;;;;;4972947;28;20121;-87
2021/12/21 11:08:57;;;;;;;1999.90;999.90;;;;;;;;;;4972727;28;20047;-85
2021/12/21 11:11:26;;;;;;;1999.90;999.90;;;;;;;;;;4939675;28;20062;-84
2021/12/21 11:14:20;;;;;;;1999.90;999.90;;;;;;;;;;4971659;28;20108;-88
2021/12/21 11:16:48;;;;;;;1999.90;999.90;;;;;;;;;;4955517;28;20039;-84
2021/12/21 11:19:18;;;;;;;1999.90;999.90;;;;;;;;;;4987746;28;20019;-83
2021/12/21 11:21:44;;;;;;;1999.90;999.90;;;;;;;;;;4972282;28;20037;-82
2021/12/21 11:24:11;;;;;;;1999.90;999.90;;;;;;;;;;4971853;28;20027;-83
2021/12/21 11:26:37;;;;;;;1999.90;999.90;;;;;;;;;;4970223;28;20413;-83
2021/12/21 11:29:06;;;;;;;1999.90;999.90;;;;;;;;;;4938904;28;20018;-85
2021/12/21 11:31:33;;;;;;;1999.90;999.90;;;;;;;;;;4922952;28;20121;-80
2021/12/21 11:33:59;;;;;;;1999.90;999.90;;;;;;;;;;4963627;28;20030;-79
2021/12/21 11:39:08;;;;;;;1999.90;999.90;;;;;;;;;;4965968;28;20034;-79
2021/12/21 11:41:35;;;;;;;1999.90;999.90;;;;;;;;;;4946665;28;20473;-80
2021/12/21 11:44:09;;;;;;;1999.90;999.90;;;;;;;;;;4983025;28;20030;-80
2021/12/21 11:46:51;;;;;;;1999.90;999.90;;;;;;;;;;4987510;28;20054;-80
2021/12/21 11:49:22;;;;;;;1999.90;999.90;;;;;;;;;;4929507;28;20850;-79
2021/12/21 11:51:47;;;;;;;1999.90;999.90;;;;;;;;;;4943395;28;20046;-80
2021/12/21 11:54:17;;;;;;;1999.90;999.90;;;;;;;;;;4936460;28;20114;-79
2021/12/21 11:56:43;;;;;;;1999.90;999.90;;;;;;;;;;4951896;28;20063;-82
2021/12/21 11:59:09;;;;;;;1999.90;999.90;;;;;;;;;;4985044;28;20101;-81
2021/12/21 12:01:34;;;;;;;1999.90;999.90;;;;;;;;;;4974719;28;20057;-82
2021/12/21 12:04:08;;;;;;;1999.90;999.90;;;;;;;;;;4959546;28;20358;-83
2021/12/21 12:06:51;;;;;;;1999.90;999.90;;;;;;;;;;4991160;28;20027;-83
2021/12/21 12:09:24;;;;;;;1999.90;999.90;;;;;;;;;;4975485;28;20154;-83
2021/12/21 12:11:50;;;;;;;1999.90;999.90;;;;;;;;;;4975226;28;20034;-83
2021/12/21 12:14:21;;;;;;;1999.90;999.90;;;;;;;;;;4975314;28;20432;-83
2021/12/21 12:16:52;;;;;;;1999.90;999.90;;;;;;;;;;4959294;28;20412;-83
2021/12/21 12:19:19;;;;;;;1999.90;999.90;;;;;;;;;;4991251;28;20508;-84
2021/12/21 12:22:05;;;;;;;1999.90;999.90;;;;;;;;;;4991049;28;20101;-76
2021/12/21 12:24:35;;;;;;;1999.90;999.90;;;;;;;;;;4974851;28;20501;-77
2021/12/21 12:27:22;;;;;;;1999.90;999.90;;;;;;;;;;4975194;28;20084;-76
2021/12/21 12:29:59;;;;;;;1999.90;999.90;;;;;;;;;;4959090;28;20039;-78
2021/12/21 12:32:35;;;;;;;1999.90;999.90;;;;;;;;;;4958806;28;20042;-77
2021/12/21 12:35:08;;;;;;;1999.90;999.90;;;;;;;;;;4957211;28;20031;-77
2021/12/21 12:37:33;;;;;;;1999.90;999.90;;;;;;;;;;4974383;28;20041;-77
2021/12/21 12:40:07;;;;;;;1999.90;999.90;;;;;;;;;;4958824;28;20477;-78
2021/12/21 12:42:34;;;;;;;1999.90;999.90;;;;;;;;;;4975151;28;20054;-77
2021/12/21 12:45:09;;;;;;;1999.90;999.90;;;;;;;;;;4958526;28;20105;-78
2021/12/21 12:47:45;;;;;;;1999.90;999.90;;;;;;;;;;4975424;28;20073;-77
2021/12/21 12:50:19;;;;;;;1999.90;999.90;;;;;;;;;;4926561;28;20089;-78
2021/12/21 12:52:49;;;;;;;1999.90;999.90;;;;;;;;;;4958142;28;20077;-78
2021/12/21 12:55:14;;;;;;;1999.90;999.90;;;;;;;;;;4926814;28;20122;-77
2021/12/21 12:57:48;;;;;;;1999.90;999.90;;;;;;;;;;4958336;28;20035;-77
2021/12/21 13:00:15;;;;;;;1999.90;999.90;;;;;;;;;;4943269;28;20034;-78
2021/12/21 13:02:53;;;;;;;1999.90;999.90;;;;;;;;;;4958333;28;20039;-78
2021/12/21 13:05:18;;;;;;;1999.90;999.90;;;;;;;;;;4958097;28;20516;-77
2021/12/21 13:07:45;;;;;;;1999.90;999.90;;;;;;;;;;4958340;28;20038;-78
2021/12/21 13:10:10;;;;;;;1999.90;999.90;;;;;;;;;;4958150;28;20033;-78
2021/12/21 13:12:36;;;;;;;1999.90;999.90;;;;;;;;;;4958438;28;20035;-78
2021/12/21 13:15:03;;;;;;;1999.90;999.90;;;;;;;;;;4941696;28;20034;-78
2021/12/21 13:17:28;;;;;;;1999.90;999.90;;;;;;;;;;4974378;28;20090;-78
2021/12/21 13:19:54;;;;;;;1554.18;762.13;;;;;;;;;;4926532;28;20410;-78
2021/12/21 13:22:24;;;;;;;1999.90;999.90;;;;;;;;;;4942052;28;20386;-77
2021/12/21 13:24:51;;;;;;;1999.90;999.90;;;;;;;;;;4941428;28;20041;-77
2021/12/21 13:27:19;;;;;;;1999.90;999.90;;;;;;;;;;4951882;28;20053;-77
2021/12/21 13:29:47;;;;;;;1999.90;999.90;;;;;;;;;;4957509;28;20154;-78
2021/12/21 13:32:16;;;;;;;1999.90;999.90;;;;;;;;;;4957544;28;20093;-79
2021/12/21 13:34:42;;;;;;;1999.90;999.90;;;;;;;;;;4943562;29;20043;-78
2021/12/21 13:37:13;;;;;;;1999.90;999.90;;;;;;;;;;4953398;29;20043;-78
2021/12/21 13:39:44;;;;;;;1999.90;999.90;;;;;;;;;;4953354;28;20489;-77
2021/12/21 13:42:14;;;;;;;1999.90;999.90;;;;;;;;;;4952732;28;20494;-78
2021/12/21 13:44:52;;;;;;;1999.90;999.90;;;;;;;;;;4954955;28;20039;-78
2021/12/21 13:47:19;;;;;;;1550.10;758.38;;;;;;;;;;4979599;28;20532;-77
2021/12/21 13:49:59;;;;;;;1999.90;999.90;;;;;;;;;;5009533;28;20030;-78
2021/12/21 13:52:26;;;;;;;1999.90;999.90;;;;;;;;;;4976448;28;20523;-78
2021/12/21 13:54:52;;;;;;;1999.90;999.90;;;;;;;;;;4976613;28;20080;-78
2021/12/21 13:57:18;;;;;;;1999.90;999.90;;;;;;;;;;4993066;28;20034;-78
2021/12/21 13:59:47;;;;;;;1999.90;999.90;;;;;;;;;;4976843;28;20097;-78
2021/12/21 14:02:18;;;;;;;1999.90;999.90;;;;;;;;;;4992873;28;20030;-78
2021/12/21 14:04:58;;;;;;;1999.90;999.90;;;;;;;;;;4976841;28;20026;-78
2021/12/21 14:07:24;;;;;;;1999.90;999.90;;;;;;;;;;4992454;28;20039;-78
2021/12/21 14:09:59;;;;;;;1999.90;999.90;;;;;;;;;;4976396;28;20037;-78
2021/12/21 14:12:25;;;;;;;1999.90;999.90;;;;;;;;;;4992742;28;20030;-78
2021/12/21 14:14:50;;;;;;;1999.90;999.90;;;;;;;;;;4992280;28;20562;-78
2021/12/21 14:17:17;;;;;;;1999.90;999.90;;;;;;;;;;4976627;28;20058;-78
2021/12/21 14:19:43;;;;;;;1999.90;999.90;;;;;;;;;;4976066;28;20042;-78
2021/12/21 14:22:09;;;;;;;1999.90;999.90;;;;;;;;;;4975317;28;20062;-78
2021/12/21 14:24:34;;;;;;;1999.90;999.90;;;;;;;;;;4976058;28;20108;-78
2021/12/21 14:27:07;;;;;;;1999.90;999.90;;;;;;;;;;4963646;28;20540;-78
2021/12/21 14:29:33;;;;;;;1999.90;999.90;;;;;;;;;;4942478;28;20038;-78
2021/12/21 14:34:40;;;;;;;1999.90;999.90;;;;;;;;;;4957871;28;20026;-78
2021/12/21 14:37:10;;;;;;;1999.90;999.90;;;;;;;;;;4988475;28;20058;-78
2021/12/21 14:39:36;;;;;;;1999.90;999.90;;;;;;;;;;4988876;28;20436;-78
2021/12/21 14:42:04;;;;;;;1999.90;999.90;;;;;;;;;;4988646;28;20066;-78
2021/12/21 14:44:31;;;;;;;1999.90;999.90;;;;;;;;;;4988456;28;20027;-78
2021/12/21 14:47:00;;;;;;;1999.90;999.90;;;;;;;;;;4988405;28;20034;-78
2021/12/21 14:49:56;;;;;;;1999.90;999.90;;;;;;;;;;4940695;28;20038;-78
2021/12/21 14:52:39;;;;;;;1999.90;999.90;;;;;;;;;;4956109;28;20436;-78